Weather reports worldwide

Advertisment
Weddell Island, United Kingdom (88883): temperature & dewpoint: 13.11.2018 17:00:00 - 19.11.2018 17:00:00 (FKST)Weddell Island, United Kingdom (88883): wind speed & gusts: 13.11.2018 17:00:00 - 19.11.2018 17:00:00 (FKST)Weddell Island, United Kingdom (88883): wind direction: 13.11.2018 17:00:00 - 19.11.2018 17:00:00 (FKST)Weddell Island, United Kingdom (88883): reduced air pressure: 13.11.2018 17:00:00 - 19.11.2018 17:00:00 (FKST)
Date & Time tt [°C] td [°C] ff [km/h] ff [kn] fx [km/h] fx [kn] dd ppp [hPa]
19.11.2018 17:00:00 12,9 1,9 26 14 - - WNW 982,3
19.11.2018 16:00:00 13,3 2,4 22 12 - - WNW 982,6
19.11.2018 15:00:00 15,3 1,1 24 13 - - W 983,0
19.11.2018 14:00:00 14,0 3,5 22 12 - - W 983,1
19.11.2018 13:00:00 14,0 5,0 18 10 - - WNW 983,0
19.11.2018 12:00:00 12,4 5,7 21 11 - - NW 983,2
19.11.2018 11:00:00 9,8 5,5 21 11 - - NNW 984,3
19.11.2018 10:00:00 9,3 4,7 28 15 - - NNW 985,5
19.11.2018 09:00:00 9,3 3,7 26 14 - - NNW 986,2
19.11.2018 08:00:00 8,6 4,6 16 9 - - NNW 987,6
19.11.2018 07:00:00 7,5 4,6 9 5 - - NNW 989,4
19.11.2018 06:00:00 6,7 3,7 15 8 - - NW 991,1
19.11.2018 05:00:00 6,9 3,0 21 11 - - WNW 992,0
19.11.2018 04:00:00 6,8 2,7 21 11 - - WNW 992,9
19.11.2018 03:00:00 6,9 2,2 22 12 - - WNW 993,9
19.11.2018 02:00:00 6,5 2,9 24 13 - - WNW 994,8
19.11.2018 01:00:00 6,8 3,0 22 12 - - WNW 995,4
19.11.2018 00:00:00 7,4 3,0 24 13 - - WNW 995,5
18.11.2018 23:00:00 7,1 3,5 22 12 - - W 996,1
18.11.2018 22:00:00 6,6 2,2 18 10 - - W 996,2
18.11.2018 21:00:00 6,1 1,9 21 11 - - W 996,0
18.11.2018 20:00:00 7,4 2,0 31 17 - - W 996,0
18.11.2018 19:00:00 8,9 2,7 34 18 - - WSW 995,8
18.11.2018 18:00:00 9,4 3,3 29 16 - - WSW 995,1
18.11.2018 17:00:00 10,0 3,6 39 21 - - W 994,4
18.11.2018 16:00:00 10,1 3,8 41 22 52 28 WSW 993,4
18.11.2018 15:00:00 10,6 4,4 44 24 - - W 992,4
18.11.2018 14:00:00 9,5 5,7 41 22 55 30 W 991,7
18.11.2018 13:00:00 7,5 5,3 41 22 54 29 W 990,6
18.11.2018 12:00:00 9,3 4,4 34 18 - - WNW 990,0
18.11.2018 11:00:00 8,8 5,7 24 13 - - NW 989,6
18.11.2018 10:00:00 8,6 6,3 29 16 - - NW 990,2
18.11.2018 09:00:00 8,5 5,0 29 16 - - NNW 991,3
18.11.2018 08:00:00 8,5 4,5 26 14 - - NNW 992,4
18.11.2018 07:00:00 7,6 4,6 18 10 - - NNW 994,0
18.11.2018 06:00:00 6,3 4,6 21 11 - - NNW 995,5
18.11.2018 05:00:00 5,7 4,5 18 10 - - NNW 997,0
18.11.2018 04:00:00 4,9 3,7 24 13 - - NNW 998,3
18.11.2018 03:00:00 5,1 3,7 18 10 - - NNW 998,9
18.11.2018 02:00:00 4,5 2,5 13 7 - - NW 1000,7
18.11.2018 01:00:00 2,9 1,1 11 6 - - NW 1001,6
18.11.2018 00:00:00 -0,2 -1,4 9 5 - - WNW 1002,1
17.11.2018 23:00:00 0,5 -1,6 8 4 - - WNW 1003,4
17.11.2018 22:00:00 -0,2 -2,1 5 3 - - W 1004,0
17.11.2018 21:00:00 1,8 -2,1 13 7 - - W 1004,2
17.11.2018 20:00:00 5,5 -0,4 16 9 - - W 1004,4
17.11.2018 19:00:00 6,9 0,1 21 11 - - W 1004,6
17.11.2018 18:00:00 7,9 -0,7 22 12 - - W 1004,7
17.11.2018 17:00:00 8,3 -0,1 22 12 - - WSW 1004,8
17.11.2018 16:00:00 8,7 0,4 26 14 - - WSW 1004,8
17.11.2018 15:00:00 9,0 1,0 18 10 - - NW 1004,5
17.11.2018 14:00:00 7,9 1,1 16 9 - - WNW 1004,4
17.11.2018 13:00:00 8,9 -1,1 13 7 - - W 1004,4
17.11.2018 12:00:00 8,6 -1,2 11 6 - - W 1004,4
17.11.2018 11:00:00 9,9 -3,2 13 7 - - W 1004,3
17.11.2018 10:00:00 9,4 -2,8 16 9 - - W 1004,5
17.11.2018 09:00:00 8,0 -0,1 18 10 - - WSW 1004,9
17.11.2018 08:00:00 7,5 -0,4 13 7 - - W 1004,4
17.11.2018 07:00:00 6,3 1,2 11 6 - - WSW 1003,9
17.11.2018 06:00:00 2,5 -0,1 9 5 - - SW 1003,3
17.11.2018 05:00:00 0,5 -1,7 13 7 - - SW 1002,8
17.11.2018 04:00:00 1,2 -1,6 13 7 - - SW 1002,3
17.11.2018 03:00:00 1,5 -1,0 11 6 - - SW 1001,5
17.11.2018 02:00:00 2,2 -0,4 11 6 - - SW 1001,3
17.11.2018 01:00:00 1,7 -0,4 9 5 - - SW 1000,7
17.11.2018 00:00:00 1,6 -0,3 11 6 - - SW 1000,0
16.11.2018 23:00:00 1,5 -0,6 15 8 - - SW 999,3
16.11.2018 22:00:00 5,0 1,3 18 10 - - WSW 998,4
16.11.2018 21:00:00 5,6 1,4 22 12 - - WSW 997,8
16.11.2018 20:00:00 6,5 1,0 31 17 - - W 997,1
16.11.2018 19:00:00 7,7 1,3 34 18 - - W 996,7
16.11.2018 18:00:00 8,0 1,2 37 20 - - W 996,1
16.11.2018 17:00:00 8,7 0,9 35 19 48 26 W 995,6
16.11.2018 16:00:00 9,6 0,9 42 23 55 30 W 995,2
16.11.2018 15:00:00 10,6 1,1 41 22 - - W 995,1
16.11.2018 14:00:00 10,1 2,5 44 24 54 29 W 994,5
16.11.2018 13:00:00 10,5 2,4 44 24 55 30 W 994,4
16.11.2018 12:00:00 10,9 2,3 46 25 - - W 994,2
16.11.2018 11:00:00 10,7 2,6 46 25 65 35 W 994,1
16.11.2018 10:00:00 10,3 2,6 39 21 55 30 W 994,2
16.11.2018 09:00:00 9,8 2,5 37 20 - - W 994,5
16.11.2018 08:00:00 8,9 2,4 37 20 46 25 W 994,9
16.11.2018 07:00:00 7,8 2,0 34 18 50 27 W 995,2
16.11.2018 06:00:00 6,8 2,0 29 16 - - W 995,4
16.11.2018 05:00:00 6,2 1,9 29 16 - - W 995,4
16.11.2018 04:00:00 6,2 2,1 28 15 - - W 995,4
16.11.2018 03:00:00 6,5 1,6 29 16 - - W 995,5
16.11.2018 02:00:00 6,7 2,8 29 16 - - W 995,6
16.11.2018 01:00:00 6,9 2,3 26 14 - - W 996,0
16.11.2018 00:00:00 6,4 2,3 26 14 - - W 996,0
15.11.2018 23:00:00 6,4 2,5 22 12 - - W 996,3
15.11.2018 22:00:00 6,0 2,2 29 16 - - W 996,5
15.11.2018 21:00:00 6,1 2,0 26 14 - - W 996,5
15.11.2018 20:00:00 6,7 1,8 26 14 - - W 996,5
15.11.2018 19:00:00 7,3 1,4 28 15 - - W 996,4
15.11.2018 18:00:00 7,1 1,0 28 15 - - SW 996,4
15.11.2018 17:00:00 8,6 0,2 31 17 - - WSW 996,0
15.11.2018 16:00:00 8,6 1,7 28 15 - - WSW 995,5
15.11.2018 15:00:00 9,5 1,7 24 13 - - WSW 995,0
15.11.2018 14:00:00 7,1 3,9 26 14 - - WSW 994,9
15.11.2018 13:00:00 9,0 0,9 26 14 - - WSW 994,5
15.11.2018 12:00:00 8,1 2,7 28 15 - - WSW 994,3
15.11.2018 11:00:00 8,1 -0,1 21 11 - - SW 994,0
15.11.2018 10:00:00 8,0 -0,4 22 12 - - SSW 993,3
15.11.2018 09:00:00 8,4 0,1 18 10 - - S 993,0
15.11.2018 08:00:00 7,0 1,0 21 11 - - S 992,6
15.11.2018 07:00:00 4,8 1,0 21 11 - - S 991,8
15.11.2018 06:00:00 4,8 1,1 24 13 - - S 990,7
15.11.2018 05:00:00 4,9 1,1 26 14 - - S 989,5
15.11.2018 04:00:00 4,7 0,8 26 14 - - S 988,9
15.11.2018 03:00:00 4,9 0,9 24 13 - - S 988,7
15.11.2018 02:00:00 4,9 1,1 24 13 - - S 988,2
15.11.2018 01:00:00 5,6 2,0 29 16 - - SSW 987,1
15.11.2018 00:00:00 7,5 3,5 34 18 - - SW 986,2
14.11.2018 23:00:00 7,6 3,2 31 17 - - SW 985,9
14.11.2018 22:00:00 8,4 2,8 34 18 - - SW 985,3
14.11.2018 21:00:00 9,3 3,1 31 17 - - SW 985,1
14.11.2018 20:00:00 10,0 4,0 28 15 - - SW 984,9
14.11.2018 19:00:00 10,8 4,4 26 14 - - WSW 984,5
14.11.2018 18:00:00 12,4 5,0 15 8 - - W 984,4
14.11.2018 17:00:00 13,3 6,0 18 10 - - WNW 984,2
14.11.2018 16:00:00 13,5 7,5 16 9 - - NNW 984,4
14.11.2018 15:00:00 10,1 7,8 22 12 - - NNW 985,1
14.11.2018 14:00:00 8,3 7,3 29 16 - - NNW 985,9
14.11.2018 13:00:00 8,0 6,8 34 18 - - NNW 986,1
14.11.2018 12:00:00 7,9 6,2 26 14 - - NNW 987,2
14.11.2018 11:00:00 10,7 6,7 28 15 - - NNW 988,2
14.11.2018 10:00:00 10,3 7,0 24 13 - - NNW 989,3
14.11.2018 09:00:00 8,9 8,3 21 11 - - NW 990,6
14.11.2018 08:00:00 6,8 6,6 15 8 - - NW 992,1
14.11.2018 07:00:00 6,3 6,2 13 7 - - NNW 992,7
14.11.2018 06:00:00 6,1 5,9 18 10 - - NW 993,8
14.11.2018 05:00:00 6,1 5,9 21 11 - - NW 994,6
14.11.2018 04:00:00 6,4 6,2 16 9 - - NNW 995,2
14.11.2018 03:00:00 6,7 6,5 18 10 - - NW 995,9
14.11.2018 02:00:00 6,8 6,5 15 8 - - NW 996,8
14.11.2018 01:00:00 7,1 6,8 13 7 - - NW 997,9
14.11.2018 00:00:00 7,2 6,9 21 11 - - NW 998,3
13.11.2018 23:00:00 6,9 6,4 22 12 - - NW 999,3
13.11.2018 22:00:00 6,8 5,8 16 9 - - NW 1000,4
13.11.2018 21:00:00 7,7 5,4 11 6 - - NNW 1001,0
13.11.2018 20:00:00 9,2 4,9 15 8 - - NNW 1001,6
13.11.2018 19:00:00 10,5 3,3 26 14 - - NW 1001,8
13.11.2018 18:00:00 12,4 2,6 29 16 - - NW 1002,0
13.11.2018 17:00:00 14,4 1,2 29 16 - - NW 1002,0

tt = temperature
td = dewpoint
ff = wind speed
fx = gusts
dd = wind direction
ppp = reduced air pressure

Next stations